sensor_id;sensor_type;location;lat;lon;timestamp;temperature;humidity
70734;DHT22;58320;48.804;9.252;2022-11-20T00:01:13;4.70;99.90
70734;DHT22;58320;48.804;9.252;2022-11-20T00:03:41;4.70;99.90
70734;DHT22;58320;48.804;9.252;2022-11-20T00:06:09;4.70;99.90
70734;DHT22;58320;48.804;9.252;2022-11-20T00:08:37;4.70;99.90
70734;DHT22;58320;48.804;9.252;2022-11-20T00:11:16;4.70;99.90
70734;DHT22;58320;48.804;9.252;2022-11-20T00:13:47;4.70;99.90
70734;DHT22;58320;48.804;9.252;2022-11-20T00:16:17;4.80;99.90
70734;DHT22;58320;48.804;9.252;2022-11-20T00:18:44;4.80;99.90
70734;DHT22;58320;48.804;9.252;2022-11-20T00:21:13;4.80;99.90
70734;DHT22;58320;48.804;9.252;2022-11-20T00:23:40;4.80;99.90
70734;DHT22;58320;48.804;9.252;2022-11-20T00:26:09;4.80;99.90
70734;DHT22;58320;48.804;9.252;2022-11-20T00:28:36;4.80;99.90
70734;DHT22;58320;48.804;9.252;2022-11-20T00:31:03;4.80;99.90
70734;DHT22;58320;48.804;9.252;2022-11-20T00:33:31;4.70;99.90
70734;DHT22;58320;48.804;9.252;2022-11-20T00:36:08;4.70;99.90
70734;DHT22;58320;48.804;9.252;2022-11-20T00:38:38;4.80;99.90
70734;DHT22;58320;48.804;9.252;2022-11-20T00:41:06;4.80;99.90
70734;DHT22;58320;48.804;9.252;2022-11-20T00:43:33;4.80;99.90
70734;DHT22;58320;48.804;9.252;2022-11-20T00:46:07;4.80;99.90
70734;DHT22;58320;48.804;9.252;2022-11-20T00:48:35;4.80;99.90
70734;DHT22;58320;48.804;9.252;2022-11-20T00:51:01;4.90;99.90
70734;DHT22;58320;48.804;9.252;2022-11-20T00:53:27;4.90;99.90
70734;DHT22;58320;48.804;9.252;2022-11-20T00:55:54;4.90;99.90
70734;DHT22;58320;48.804;9.252;2022-11-20T00:58:22;5.00;99.90
70734;DHT22;58320;48.804;9.252;2022-11-20T01:00:49;5.00;99.90
70734;DHT22;58320;48.804;9.252;2022-11-20T01:03:16;5.00;99.90
70734;DHT22;58320;48.804;9.252;2022-11-20T01:05:42;5.00;99.90
70734;DHT22;58320;48.804;9.252;2022-11-20T01:08:08;5.00;99.90
70734;DHT22;58320;48.804;9.252;2022-11-20T01:10:34;5.00;99.90
70734;DHT22;58320;48.804;9.252;2022-11-20T01:13:00;5.00;99.90
70734;DHT22;58320;48.804;9.252;2022-11-20T01:15:44;5.00;99.90
70734;DHT22;58320;48.804;9.252;2022-11-20T01:18:10;5.00;99.90
70734;DHT22;58320;48.804;9.252;2022-11-20T01:20:36;5.10;99.90
70734;DHT22;58320;48.804;9.252;2022-11-20T01:23:05;5.10;99.90
70734;DHT22;58320;48.804;9.252;2022-11-20T01:25:31;5.10;99.90
70734;DHT22;58320;48.804;9.252;2022-11-20T01:27:56;5.10;99.90
70734;DHT22;58320;48.804;9.252;2022-11-20T01:30:22;5.10;99.90
70734;DHT22;58320;48.804;9.252;2022-11-20T01:32:48;5.10;99.40
70734;DHT22;58320;48.804;9.252;2022-11-20T01:35:14;5.20;98.30
70734;DHT22;58320;48.804;9.252;2022-11-20T01:37:40;5.10;98.70
70734;DHT22;58320;48.804;9.252;2022-11-20T01:40:06;5.20;97.60
70734;DHT22;58320;48.804;9.252;2022-11-20T01:42:32;5.10;97.70
70734;DHT22;58320;48.804;9.252;2022-11-20T01:45:46;5.10;98.10
70734;DHT22;58320;48.804;9.252;2022-11-20T01:48:20;5.10;98.40
70734;DHT22;58320;48.804;9.252;2022-11-20T01:50:48;5.10;98.70
70734;DHT22;58320;48.804;9.252;2022-11-20T01:53:17;5.20;98.90
70734;DHT22;58320;48.804;9.252;2022-11-20T01:55:53;5.20;98.40
70734;DHT22;58320;48.804;9.252;2022-11-20T01:58:23;5.20;95.50
70734;DHT22;58320;48.804;9.252;2022-11-20T02:00:53;5.30;95.10
70734;DHT22;58320;48.804;9.252;2022-11-20T02:03:19;5.30;94.60
70734;DHT22;58320;48.804;9.252;2022-11-20T02:05:55;5.30;94.90
70734;DHT22;58320;48.804;9.252;2022-11-20T02:08:28;5.30;94.80
70734;DHT22;58320;48.804;9.252;2022-11-20T02:10:54;5.30;94.80
70734;DHT22;58320;48.804;9.252;2022-11-20T02:13:19;5.30;94.10
70734;DHT22;58320;48.804;9.252;2022-11-20T02:16:05;5.30;94.40
70734;DHT22;58320;48.804;9.252;2022-11-20T02:18:38;5.30;94.30
70734;DHT22;58320;48.804;9.252;2022-11-20T02:24:00;5.40;94.40
70734;DHT22;58320;48.804;9.252;2022-11-20T02:26:28;5.40;94.50
70734;DHT22;58320;48.804;9.252;2022-11-20T02:28:57;5.40;94.40
70734;DHT22;58320;48.804;9.252;2022-11-20T02:31:24;5.40;94.10
70734;DHT22;58320;48.804;9.252;2022-11-20T02:33:58;5.40;93.70
70734;DHT22;58320;48.804;9.252;2022-11-20T02:36:26;5.40;94.10
70734;DHT22;58320;48.804;9.252;2022-11-20T02:38:53;5.40;94.40
70734;DHT22;58320;48.804;9.252;2022-11-20T02:41:19;5.40;94.50
70734;DHT22;58320;48.804;9.252;2022-11-20T02:43:45;5.40;93.50
70734;DHT22;58320;48.804;9.252;2022-11-20T02:46:11;5.40;93.20
70734;DHT22;58320;48.804;9.252;2022-11-20T02:48:37;5.40;93.70
70734;DHT22;58320;48.804;9.252;2022-11-20T02:51:02;5.40;93.40
70734;DHT22;58320;48.804;9.252;2022-11-20T02:53:28;5.40;93.40
70734;DHT22;58320;48.804;9.252;2022-11-20T02:55:54;5.40;93.70
70734;DHT22;58320;48.804;9.252;2022-11-20T02:58:20;5.50;93.10
70734;DHT22;58320;48.804;9.252;2022-11-20T03:00:46;5.50;91.90
70734;DHT22;58320;48.804;9.252;2022-11-20T03:03:12;5.50;91.80
70734;DHT22;58320;48.804;9.252;2022-11-20T03:05:38;5.50;91.40
70734;DHT22;58320;48.804;9.252;2022-11-20T03:08:03;5.50;90.50
70734;DHT22;58320;48.804;9.252;2022-11-20T03:10:29;5.50;90.50
70734;DHT22;58320;48.804;9.252;2022-11-20T03:12:55;5.50;90.70
70734;DHT22;58320;48.804;9.252;2022-11-20T03:15:22;5.50;90.40
70734;DHT22;58320;48.804;9.252;2022-11-20T03:17:48;5.50;91.20
70734;DHT22;58320;48.804;9.252;2022-11-20T03:20:14;5.50;91.10
70734;DHT22;58320;48.804;9.252;2022-11-20T03:22:40;5.50;91.00
70734;DHT22;58320;48.804;9.252;2022-11-20T03:25:06;5.50;91.50
70734;DHT22;58320;48.804;9.252;2022-11-20T03:27:34;5.50;91.70
70734;DHT22;58320;48.804;9.252;2022-11-20T03:30:00;5.50;91.10
70734;DHT22;58320;48.804;9.252;2022-11-20T03:32:26;5.50;91.50
70734;DHT22;58320;48.804;9.252;2022-11-20T03:34:52;5.50;92.00
70734;DHT22;58320;48.804;9.252;2022-11-20T03:37:18;5.50;92.00
70734;DHT22;58320;48.804;9.252;2022-11-20T03:39:44;5.40;92.10
70734;DHT22;58320;48.804;9.252;2022-11-20T03:42:09;5.40;91.50
70734;DHT22;58320;48.804;9.252;2022-11-20T03:44:54;5.40;90.70
70734;DHT22;58320;48.804;9.252;2022-11-20T03:47:20;5.40;91.50
70734;DHT22;58320;48.804;9.252;2022-11-20T03:49:46;5.30;91.30
70734;DHT22;58320;48.804;9.252;2022-11-20T03:52:12;5.40;91.20
70734;DHT22;58320;48.804;9.252;2022-11-20T03:54:37;5.30;91.90
70734;DHT22;58320;48.804;9.252;2022-11-20T03:57:03;5.30;91.10
70734;DHT22;58320;48.804;9.252;2022-11-20T03:59:29;5.30;90.90
70734;DHT22;58320;48.804;9.252;2022-11-20T04:01:55;5.40;90.80
70734;DHT22;58320;48.804;9.252;2022-11-20T04:04:21;5.30;90.40
70734;DHT22;58320;48.804;9.252;2022-11-20T04:06:46;5.30;90.70
70734;DHT22;58320;48.804;9.252;2022-11-20T04:09:12;5.30;90.30
70734;DHT22;58320;48.804;9.252;2022-11-20T04:11:39;5.30;90.70
70734;DHT22;58320;48.804;9.252;2022-11-20T04:14:11;5.20;91.20
70734;DHT22;58320;48.804;9.252;2022-11-20T04:16:38;5.30;90.80
70734;DHT22;58320;48.804;9.252;2022-11-20T04:19:06;5.30;90.40
70734;DHT22;58320;48.804;9.252;2022-11-20T04:21:35;5.30;89.80
70734;DHT22;58320;48.804;9.252;2022-11-20T04:24:02;5.30;89.70
70734;DHT22;58320;48.804;9.252;2022-11-20T04:26:29;5.30;89.70
70734;DHT22;58320;48.804;9.252;2022-11-20T04:28:55;5.30;89.60
70734;DHT22;58320;48.804;9.252;2022-11-20T04:31:25;5.30;89.10
70734;DHT22;58320;48.804;9.252;2022-11-20T04:33:53;5.30;88.40
70734;DHT22;58320;48.804;9.252;2022-11-20T04:36:24;5.40;88.30
70734;DHT22;58320;48.804;9.252;2022-11-20T04:38:55;5.30;88.80
70734;DHT22;58320;48.804;9.252;2022-11-20T04:41:24;5.30;88.70
70734;DHT22;58320;48.804;9.252;2022-11-20T04:43:57;5.30;89.30
70734;DHT22;58320;48.804;9.252;2022-11-20T04:46:26;5.30;89.10
70734;DHT22;58320;48.804;9.252;2022-11-20T04:52:09;5.20;89.30
70734;DHT22;58320;48.804;9.252;2022-11-20T04:54:35;5.20;89.40
70734;DHT22;58320;48.804;9.252;2022-11-20T04:57:01;5.20;89.30
70734;DHT22;58320;48.804;9.252;2022-11-20T04:59:27;5.30;89.50
70734;DHT22;58320;48.804;9.252;2022-11-20T05:01:52;5.30;89.30
70734;DHT22;58320;48.804;9.252;2022-11-20T05:04:18;5.30;89.20
70734;DHT22;58320;48.804;9.252;2022-11-20T05:06:44;5.30;89.60
70734;DHT22;58320;48.804;9.252;2022-11-20T05:09:11;5.30;89.40
70734;DHT22;58320;48.804;9.252;2022-11-20T05:11:38;5.20;89.10
70734;DHT22;58320;48.804;9.252;2022-11-20T05:14:04;5.30;89.30
70734;DHT22;58320;48.804;9.252;2022-11-20T05:16:29;5.30;88.70
70734;DHT22;58320;48.804;9.252;2022-11-20T05:18:55;5.30;89.00
70734;DHT22;58320;48.804;9.252;2022-11-20T05:21:21;5.30;88.70
70734;DHT22;58320;48.804;9.252;2022-11-20T05:23:48;5.30;88.70
70734;DHT22;58320;48.804;9.252;2022-11-20T05:26:20;5.30;88.70
70734;DHT22;58320;48.804;9.252;2022-11-20T05:28:47;5.40;88.70
70734;DHT22;58320;48.804;9.252;2022-11-20T05:31:23;5.40;88.60
70734;DHT22;58320;48.804;9.252;2022-11-20T05:33:50;5.40;88.40
70734;DHT22;58320;48.804;9.252;2022-11-20T05:36:17;5.40;88.10
70734;DHT22;58320;48.804;9.252;2022-11-20T05:38:43;5.50;88.40
70734;DHT22;58320;48.804;9.252;2022-11-20T05:41:21;5.50;88.30
70734;DHT22;58320;48.804;9.252;2022-11-20T05:43:48;5.50;88.00
70734;DHT22;58320;48.804;9.252;2022-11-20T05:46:16;5.50;87.60
70734;DHT22;58320;48.804;9.252;2022-11-20T05:48:44;5.50;87.70
70734;DHT22;58320;48.804;9.252;2022-11-20T05:51:16;5.50;87.90
70734;DHT22;58320;48.804;9.252;2022-11-20T05:53:43;5.50;88.10
70734;DHT22;58320;48.804;9.252;2022-11-20T05:56:14;5.50;88.30
70734;DHT22;58320;48.804;9.252;2022-11-20T05:58:42;5.50;87.90
70734;DHT22;58320;48.804;9.252;2022-11-20T06:01:20;5.50;88.20
70734;DHT22;58320;48.804;9.252;2022-11-20T06:03:50;5.60;88.10
70734;DHT22;58320;48.804;9.252;2022-11-20T06:06:18;5.60;87.90
70734;DHT22;58320;48.804;9.252;2022-11-20T06:08:44;5.60;87.40
70734;DHT22;58320;48.804;9.252;2022-11-20T06:11:12;5.60;87.60
70734;DHT22;58320;48.804;9.252;2022-11-20T06:13:38;5.60;87.30
70734;DHT22;58320;48.804;9.252;2022-11-20T06:16:05;5.60;88.10
70734;DHT22;58320;48.804;9.252;2022-11-20T06:18:31;5.60;87.40
70734;DHT22;58320;48.804;9.252;2022-11-20T06:21:05;5.60;87.20
70734;DHT22;58320;48.804;9.252;2022-11-20T06:23:34;5.60;87.30
70734;DHT22;58320;48.804;9.252;2022-11-20T06:26:06;5.70;88.30
70734;DHT22;58320;48.804;9.252;2022-11-20T06:28:36;5.60;87.10
70734;DHT22;58320;48.804;9.252;2022-11-20T06:31:02;5.70;87.20
70734;DHT22;58320;48.804;9.252;2022-11-20T06:33:29;5.70;87.20
70734;DHT22;58320;48.804;9.252;2022-11-20T06:35:59;5.70;87.60
70734;DHT22;58320;48.804;9.252;2022-11-20T06:38:26;5.70;87.70
70734;DHT22;58320;48.804;9.252;2022-11-20T06:40:53;5.70;87.50
70734;DHT22;58320;48.804;9.252;2022-11-20T06:43:19;5.70;87.50
70734;DHT22;58320;48.804;9.252;2022-11-20T06:45:45;5.60;87.40
70734;DHT22;58320;48.804;9.252;2022-11-20T06:48:11;5.60;87.70
70734;DHT22;58320;48.804;9.252;2022-11-20T06:50:37;5.70;87.70
70734;DHT22;58320;48.804;9.252;2022-11-20T06:53:03;5.60;87.80
70734;DHT22;58320;48.804;9.252;2022-11-20T06:55:30;5.60;87.90
70734;DHT22;58320;48.804;9.252;2022-11-20T06:57:57;5.60;87.30
70734;DHT22;58320;48.804;9.252;2022-11-20T07:00:23;5.60;87.40
70734;DHT22;58320;48.804;9.252;2022-11-20T07:02:49;5.60;87.80
70734;DHT22;58320;48.804;9.252;2022-11-20T07:05:15;5.60;87.90
70734;DHT22;58320;48.804;9.252;2022-11-20T07:07:41;5.60;87.20
70734;DHT22;58320;48.804;9.252;2022-11-20T07:10:08;5.60;87.00
70734;DHT22;58320;48.804;9.252;2022-11-20T07:12:34;5.70;87.30
70734;DHT22;58320;48.804;9.252;2022-11-20T07:14:59;5.70;87.20
70734;DHT22;58320;48.804;9.252;2022-11-20T07:17:25;5.70;86.90
70734;DHT22;58320;48.804;9.252;2022-11-20T07:19:51;5.80;86.20
70734;DHT22;58320;48.804;9.252;2022-11-20T07:22:17;5.90;86.20
70734;DHT22;58320;48.804;9.252;2022-11-20T07:24:43;5.90;85.40
70734;DHT22;58320;48.804;9.252;2022-11-20T07:27:08;5.90;85.40
70734;DHT22;58320;48.804;9.252;2022-11-20T07:29:34;6.00;85.90
70734;DHT22;58320;48.804;9.252;2022-11-20T07:32:00;6.00;85.70
70734;DHT22;58320;48.804;9.252;2022-11-20T07:34:26;6.00;85.20
70734;DHT22;58320;48.804;9.252;2022-11-20T07:36:51;6.00;84.70
70734;DHT22;58320;48.804;9.252;2022-11-20T07:39:17;6.00;84.40
70734;DHT22;58320;48.804;9.252;2022-11-20T07:41:43;6.00;84.80
70734;DHT22;58320;48.804;9.252;2022-11-20T07:44:09;6.10;84.50
70734;DHT22;58320;48.804;9.252;2022-11-20T07:46:35;6.20;84.80
70734;DHT22;58320;48.804;9.252;2022-11-20T07:49:00;6.20;84.90
70734;DHT22;58320;48.804;9.252;2022-11-20T07:51:26;6.30;83.90
70734;DHT22;58320;48.804;9.252;2022-11-20T07:53:53;6.40;84.00
70734;DHT22;58320;48.804;9.252;2022-11-20T07:56:19;6.50;83.50
70734;DHT22;58320;48.804;9.252;2022-11-20T07:58:44;6.50;83.20
70734;DHT22;58320;48.804;9.252;2022-11-20T08:01:10;6.50;83.30
70734;DHT22;58320;48.804;9.252;2022-11-20T08:03:36;6.40;84.70
70734;DHT22;58320;48.804;9.252;2022-11-20T08:06:06;6.40;85.00
70734;DHT22;58320;48.804;9.252;2022-11-20T08:08:32;6.30;85.10
70734;DHT22;58320;48.804;9.252;2022-11-20T08:10:58;6.30;85.70
70734;DHT22;58320;48.804;9.252;2022-11-20T08:13:42;6.30;85.70
70734;DHT22;58320;48.804;9.252;2022-11-20T08:16:27;6.40;85.60
70734;DHT22;58320;48.804;9.252;2022-11-20T08:18:54;6.50;85.60
70734;DHT22;58320;48.804;9.252;2022-11-20T08:21:19;6.40;85.50
70734;DHT22;58320;48.804;9.252;2022-11-20T08:23:45;6.40;84.80
70734;DHT22;58320;48.804;9.252;2022-11-20T08:26:11;6.40;84.90
70734;DHT22;58320;48.804;9.252;2022-11-20T08:28:37;6.50;84.20
70734;DHT22;58320;48.804;9.252;2022-11-20T08:31:03;6.60;82.90
70734;DHT22;58320;48.804;9.252;2022-11-20T08:33:29;6.80;81.90
70734;DHT22;58320;48.804;9.252;2022-11-20T08:36:02;6.90;82.00
70734;DHT22;58320;48.804;9.252;2022-11-20T08:38:29;7.00;81.90
70734;DHT22;58320;48.804;9.252;2022-11-20T08:41:01;7.10;81.90
70734;DHT22;58320;48.804;9.252;2022-11-20T08:43:46;7.10;81.80
70734;DHT22;58320;48.804;9.252;2022-11-20T08:46:12;7.00;82.60
70734;DHT22;58320;48.804;9.252;2022-11-20T08:48:38;7.00;82.40
70734;DHT22;58320;48.804;9.252;2022-11-20T08:51:04;7.00;83.30
70734;DHT22;58320;48.804;9.252;2022-11-20T08:53:30;7.10;83.70
70734;DHT22;58320;48.804;9.252;2022-11-20T08:55:59;7.20;81.70
70734;DHT22;58320;48.804;9.252;2022-11-20T08:58:25;7.30;81.60
70734;DHT22;58320;48.804;9.252;2022-11-20T09:00:51;7.50;81.00
70734;DHT22;58320;48.804;9.252;2022-11-20T09:03:17;7.60;80.70
70734;DHT22;58320;48.804;9.252;2022-11-20T09:05:43;7.70;80.50
70734;DHT22;58320;48.804;9.252;2022-11-20T09:08:09;7.70;79.70
70734;DHT22;58320;48.804;9.252;2022-11-20T09:10:35;7.70;79.10
70734;DHT22;58320;48.804;9.252;2022-11-20T09:13:02;7.70;80.30
70734;DHT22;58320;48.804;9.252;2022-11-20T09:15:28;7.70;79.10
70734;DHT22;58320;48.804;9.252;2022-11-20T09:17:58;7.70;78.90
70734;DHT22;58320;48.804;9.252;2022-11-20T09:20:29;7.70;78.00
70734;DHT22;58320;48.804;9.252;2022-11-20T09:22:56;7.70;79.10
70734;DHT22;58320;48.804;9.252;2022-11-20T09:25:22;7.80;78.00
70734;DHT22;58320;48.804;9.252;2022-11-20T09:27:57;7.80;78.20
70734;DHT22;58320;48.804;9.252;2022-11-20T09:30:24;7.80;78.20
70734;DHT22;58320;48.804;9.252;2022-11-20T09:32:51;7.80;78.30
70734;DHT22;58320;48.804;9.252;2022-11-20T09:35:17;7.90;77.10
70734;DHT22;58320;48.804;9.252;2022-11-20T09:37:44;7.80;76.90
70734;DHT22;58320;48.804;9.252;2022-11-20T09:40:22;7.80;78.10
70734;DHT22;58320;48.804;9.252;2022-11-20T09:43:07;7.80;77.30
70734;DHT22;58320;48.804;9.252;2022-11-20T09:51:40;7.80;77.60
70734;DHT22;58320;48.804;9.252;2022-11-20T09:54:17;7.70;77.60
70734;DHT22;58320;48.804;9.252;2022-11-20T09:57:01;7.70;77.00
70734;DHT22;58320;48.804;9.252;2022-11-20T10:02:32;7.80;76.80
70734;DHT22;58320;48.804;9.252;2022-11-20T10:05:21;7.70;77.20
70734;DHT22;58320;48.804;9.252;2022-11-20T10:16:46;6.90;83.60
70734;DHT22;58320;48.804;9.252;2022-11-20T10:19:44;6.90;83.20
70734;DHT22;58320;48.804;9.252;2022-11-20T10:30:24;6.90;85.40
70734;DHT22;58320;48.804;9.252;2022-11-20T10:35:50;6.70;88.30
70734;DHT22;58320;48.804;9.252;2022-11-20T10:38:46;6.60;90.60
70734;DHT22;58320;48.804;9.252;2022-11-20T10:41:43;6.50;92.60
70734;DHT22;58320;48.804;9.252;2022-11-20T10:44:17;6.40;95.20
70734;DHT22;58320;48.804;9.252;2022-11-20T10:47:05;6.30;96.00
70734;DHT22;58320;48.804;9.252;2022-11-20T10:49:38;6.20;97.60
70734;DHT22;58320;48.804;9.252;2022-11-20T10:52:36;6.20;99.10
70734;DHT22;58320;48.804;9.252;2022-11-20T10:58:22;6.30;99.40
70734;DHT22;58320;48.804;9.252;2022-11-20T11:01:18;6.20;98.60
70734;DHT22;58320;48.804;9.252;2022-11-20T11:03:49;6.00;98.40
70734;DHT22;58320;48.804;9.252;2022-11-20T11:09:01;6.00;99.90
70734;DHT22;58320;48.804;9.252;2022-11-20T11:11:32;6.20;99.90
70734;DHT22;58320;48.804;9.252;2022-11-20T11:14:10;6.30;99.90
70734;DHT22;58320;48.804;9.252;2022-11-20T11:16:55;6.40;99.90
70734;DHT22;58320;48.804;9.252;2022-11-20T11:19:22;6.50;99.90
70734;DHT22;58320;48.804;9.252;2022-11-20T11:21:54;6.50;99.90
70734;DHT22;58320;48.804;9.252;2022-11-20T11:24:27;6.50;99.90
70734;DHT22;58320;48.804;9.252;2022-11-20T11:26:59;6.50;99.90
70734;DHT22;58320;48.804;9.252;2022-11-20T11:29:32;6.60;99.90
70734;DHT22;58320;48.804;9.252;2022-11-20T11:32:13;6.70;99.90
70734;DHT22;58320;48.804;9.252;2022-11-20T11:34:40;6.90;99.90
70734;DHT22;58320;48.804;9.252;2022-11-20T11:37:19;7.20;99.90
70734;DHT22;58320;48.804;9.252;2022-11-20T11:39:47;8.00;99.90
70734;DHT22;58320;48.804;9.252;2022-11-20T11:42:17;9.30;99.90
70734;DHT22;58320;48.804;9.252;2022-11-20T11:44:46;10.60;92.80
70734;DHT22;58320;48.804;9.252;2022-11-20T12:07:00;14.10;61.10
70734;DHT22;58320;48.804;9.252;2022-11-20T12:09:38;14.00;62.10
70734;DHT22;58320;48.804;9.252;2022-11-20T12:12:12;14.30;62.10
70734;DHT22;58320;48.804;9.252;2022-11-20T12:14:46;14.20;59.80
70734;DHT22;58320;48.804;9.252;2022-11-20T12:17:15;14.00;63.20
70734;DHT22;58320;48.804;9.252;2022-11-20T12:19:41;14.40;61.10
70734;DHT22;58320;48.804;9.252;2022-11-20T12:25:14;15.70;55.30
70734;DHT22;58320;48.804;9.252;2022-11-20T12:37:18;10.10;64.00
70734;DHT22;58320;48.804;9.252;2022-11-20T12:39:49;9.60;67.00
70734;DHT22;58320;48.804;9.252;2022-11-20T12:43:03;9.50;66.50
70734;DHT22;58320;48.804;9.252;2022-11-20T12:57:24;11.20;60.80
70734;DHT22;58320;48.804;9.252;2022-11-20T13:00:20;11.50;57.90
70734;DHT22;58320;48.804;9.252;2022-11-20T13:08:40;11.50;54.70
70734;DHT22;58320;48.804;9.252;2022-11-20T13:17:11;10.30;57.60
70734;DHT22;58320;48.804;9.252;2022-11-20T13:19:50;10.00;58.80
70734;DHT22;58320;48.804;9.252;2022-11-20T13:22:31;9.90;58.90
70734;DHT22;58320;48.804;9.252;2022-11-20T13:27:57;9.40;59.80
70734;DHT22;58320;48.804;9.252;2022-11-20T13:30:29;9.20;61.30
70734;DHT22;58320;48.804;9.252;2022-11-20T13:33:08;9.20;61.30
70734;DHT22;58320;48.804;9.252;2022-11-20T13:35:37;9.20;59.70
70734;DHT22;58320;48.804;9.252;2022-11-20T13:38:07;9.10;59.70
70734;DHT22;58320;48.804;9.252;2022-11-20T13:41:00;9.20;59.40
70734;DHT22;58320;48.804;9.252;2022-11-20T13:43:47;9.20;59.40
70734;DHT22;58320;48.804;9.252;2022-11-20T13:46:13;9.20;58.50
70734;DHT22;58320;48.804;9.252;2022-11-20T13:48:44;9.30;58.60
70734;DHT22;58320;48.804;9.252;2022-11-20T13:51:37;9.40;58.30
70734;DHT22;58320;48.804;9.252;2022-11-20T14:00:21;9.30;59.00
70734;DHT22;58320;48.804;9.252;2022-11-20T14:06:03;9.10;60.40
70734;DHT22;58320;48.804;9.252;2022-11-20T14:08:43;9.10;61.00
70734;DHT22;58320;48.804;9.252;2022-11-20T14:11:18;9.00;61.10
70734;DHT22;58320;48.804;9.252;2022-11-20T14:14:15;9.00;61.60
70734;DHT22;58320;48.804;9.252;2022-11-20T14:16:42;9.10;62.90
70734;DHT22;58320;48.804;9.252;2022-11-20T14:19:36;9.30;62.80
70734;DHT22;58320;48.804;9.252;2022-11-20T14:22:36;8.90;63.90
70734;DHT22;58320;48.804;9.252;2022-11-20T14:27:42;8.60;65.30
70734;DHT22;58320;48.804;9.252;2022-11-20T14:30:18;8.50;65.90
70734;DHT22;58320;48.804;9.252;2022-11-20T14:32:46;8.40;66.70
70734;DHT22;58320;48.804;9.252;2022-11-20T14:35:24;8.40;67.40
70734;DHT22;58320;48.804;9.252;2022-11-20T14:37:52;8.30;67.80
70734;DHT22;58320;48.804;9.252;2022-11-20T14:40:35;8.20;67.90
70734;DHT22;58320;48.804;9.252;2022-11-20T14:43:04;8.10;68.90
70734;DHT22;58320;48.804;9.252;2022-11-20T14:45:46;8.10;69.80
70734;DHT22;58320;48.804;9.252;2022-11-20T14:48:17;8.10;69.50
70734;DHT22;58320;48.804;9.252;2022-11-20T14:50:44;8.10;70.40
70734;DHT22;58320;48.804;9.252;2022-11-20T14:53:09;8.10;69.50
70734;DHT22;58320;48.804;9.252;2022-11-20T14:55:38;8.00;69.80
70734;DHT22;58320;48.804;9.252;2022-11-20T14:58:26;8.00;70.70
70734;DHT22;58320;48.804;9.252;2022-11-20T15:01:02;7.90;70.90
70734;DHT22;58320;48.804;9.252;2022-11-20T15:05:59;7.80;70.20
70734;DHT22;58320;48.804;9.252;2022-11-20T15:08:25;7.70;70.20
70734;DHT22;58320;48.804;9.252;2022-11-20T15:10:52;7.60;70.10
70734;DHT22;58320;48.804;9.252;2022-11-20T15:15:56;7.60;70.10
70734;DHT22;58320;48.804;9.252;2022-11-20T15:18:32;7.50;70.30
70734;DHT22;58320;48.804;9.252;2022-11-20T15:21:03;7.40;70.90
70734;DHT22;58320;48.804;9.252;2022-11-20T15:23:33;7.30;71.50
70734;DHT22;58320;48.804;9.252;2022-11-20T15:25:59;7.30;71.50
70734;DHT22;58320;48.804;9.252;2022-11-20T15:28:39;7.20;72.20
70734;DHT22;58320;48.804;9.252;2022-11-20T15:31:06;7.10;72.70
70734;DHT22;58320;48.804;9.252;2022-11-20T15:33:32;7.00;73.10
70734;DHT22;58320;48.804;9.252;2022-11-20T15:35:59;7.00;74.10
70734;DHT22;58320;48.804;9.252;2022-11-20T15:38:25;6.90;74.30
70734;DHT22;58320;48.804;9.252;2022-11-20T15:40:51;6.80;75.20
70734;DHT22;58320;48.804;9.252;2022-11-20T15:43:17;6.80;75.40
70734;DHT22;58320;48.804;9.252;2022-11-20T15:45:45;6.70;75.90
70734;DHT22;58320;48.804;9.252;2022-11-20T15:48:36;6.70;76.10
70734;DHT22;58320;48.804;9.252;2022-11-20T15:53:47;6.60;76.70
70734;DHT22;58320;48.804;9.252;2022-11-20T15:56:13;6.60;77.00
70734;DHT22;58320;48.804;9.252;2022-11-20T15:58:40;6.50;76.80
70734;DHT22;58320;48.804;9.252;2022-11-20T16:01:10;6.50;77.20
70734;DHT22;58320;48.804;9.252;2022-11-20T16:03:37;6.50;77.30
70734;DHT22;58320;48.804;9.252;2022-11-20T16:06:03;6.40;77.40
70734;DHT22;58320;48.804;9.252;2022-11-20T16:08:29;6.40;77.80
70734;DHT22;58320;48.804;9.252;2022-11-20T16:10:55;6.40;77.60
70734;DHT22;58320;48.804;9.252;2022-11-20T16:13:21;6.40;77.70
70734;DHT22;58320;48.804;9.252;2022-11-20T16:16:07;6.40;77.60
70734;DHT22;58320;48.804;9.252;2022-11-20T16:18:38;6.30;78.30
70734;DHT22;58320;48.804;9.252;2022-11-20T16:21:03;6.30;78.90
70734;DHT22;58320;48.804;9.252;2022-11-20T16:23:31;6.30;79.10
70734;DHT22;58320;48.804;9.252;2022-11-20T16:25:57;6.20;79.60
70734;DHT22;58320;48.804;9.252;2022-11-20T16:28:23;6.20;79.80
70734;DHT22;58320;48.804;9.252;2022-11-20T16:30:48;6.20;80.00
70734;DHT22;58320;48.804;9.252;2022-11-20T16:33:16;6.30;80.00
70734;DHT22;58320;48.804;9.252;2022-11-20T16:35:42;6.30;80.20
70734;DHT22;58320;48.804;9.252;2022-11-20T16:38:08;6.30;80.20
70734;DHT22;58320;48.804;9.252;2022-11-20T16:40:34;6.40;80.00
70734;DHT22;58320;48.804;9.252;2022-11-20T16:43:08;6.40;80.10
70734;DHT22;58320;48.804;9.252;2022-11-20T16:45:40;6.40;80.30
70734;DHT22;58320;48.804;9.252;2022-11-20T16:48:11;6.50;80.10
70734;DHT22;58320;48.804;9.252;2022-11-20T16:50:45;6.50;80.10
70734;DHT22;58320;48.804;9.252;2022-11-20T16:53:16;6.60;79.70
70734;DHT22;58320;48.804;9.252;2022-11-20T16:55:43;6.60;79.50
70734;DHT22;58320;48.804;9.252;2022-11-20T16:58:09;6.60;80.00
70734;DHT22;58320;48.804;9.252;2022-11-20T17:00:39;6.60;79.90
70734;DHT22;58320;48.804;9.252;2022-11-20T17:03:06;6.60;79.40
70734;DHT22;58320;48.804;9.252;2022-11-20T17:05:33;6.70;79.40
70734;DHT22;58320;48.804;9.252;2022-11-20T17:07:59;6.70;79.70
70734;DHT22;58320;48.804;9.252;2022-11-20T17:10:25;6.70;79.50
70734;DHT22;58320;48.804;9.252;2022-11-20T17:12:51;6.70;79.60
70734;DHT22;58320;48.804;9.252;2022-11-20T17:15:20;6.70;79.00
70734;DHT22;58320;48.804;9.252;2022-11-20T17:17:46;6.70;78.80
70734;DHT22;58320;48.804;9.252;2022-11-20T17:20:12;6.70;79.20
70734;DHT22;58320;48.804;9.252;2022-11-20T17:22:38;6.70;79.80
70734;DHT22;58320;48.804;9.252;2022-11-20T17:25:04;6.70;79.90
70734;DHT22;58320;48.804;9.252;2022-11-20T17:27:30;6.60;79.70
70734;DHT22;58320;48.804;9.252;2022-11-20T17:29:55;6.60;80.00
70734;DHT22;58320;48.804;9.252;2022-11-20T17:32:23;6.60;80.10
70734;DHT22;58320;48.804;9.252;2022-11-20T17:34:49;6.60;80.20
70734;DHT22;58320;48.804;9.252;2022-11-20T17:37:14;6.60;80.70
70734;DHT22;58320;48.804;9.252;2022-11-20T17:39:41;6.60;80.30
70734;DHT22;58320;48.804;9.252;2022-11-20T17:42:09;6.60;80.60
70734;DHT22;58320;48.804;9.252;2022-11-20T17:44:54;6.60;80.40
70734;DHT22;58320;48.804;9.252;2022-11-20T17:47:20;6.60;80.50
70734;DHT22;58320;48.804;9.252;2022-11-20T17:49:46;6.60;80.50
70734;DHT22;58320;48.804;9.252;2022-11-20T17:52:12;6.60;79.60
70734;DHT22;58320;48.804;9.252;2022-11-20T17:54:37;6.60;79.90
70734;DHT22;58320;48.804;9.252;2022-11-20T17:57:05;6.60;80.00
70734;DHT22;58320;48.804;9.252;2022-11-20T17:59:49;6.60;80.20
70734;DHT22;58320;48.804;9.252;2022-11-20T18:02:15;6.60;79.80